createdAt,value
2022-10-17T00:01:48.437Z,1.30
2022-10-17T00:04:16.378Z,1.10
2022-10-17T00:06:44.377Z,1.20
2022-10-17T00:09:12.219Z,1.37
2022-10-17T00:11:40.122Z,0.93
2022-10-17T00:14:07.996Z,1.30
2022-10-17T00:16:37.633Z,1.10
2022-10-17T00:19:05.676Z,1.00
2022-10-17T00:21:33.718Z,1.10
2022-10-17T00:24:01.845Z,1.03
2022-10-17T00:26:30.449Z,1.07
2022-10-17T00:28:58.391Z,1.30
2022-10-17T00:31:26.345Z,1.00
2022-10-17T00:33:55.613Z,1.20
2022-10-17T00:36:24.276Z,1.00
2022-10-17T00:38:53.353Z,1.10
2022-10-17T00:41:22.648Z,1.10
2022-10-17T00:43:52.247Z,1.10
2022-10-17T00:46:20.283Z,1.10
2022-10-17T00:48:48.205Z,1.00
2022-10-17T00:51:17.400Z,1.10
2022-10-17T00:53:45.269Z,1.10
2022-10-17T00:56:13.167Z,1.17
2022-10-17T00:58:41.038Z,1.20
2022-10-17T01:01:08.952Z,1.10
2022-10-17T01:03:36.954Z,1.00
2022-10-17T01:06:05.007Z,1.07
2022-10-17T01:08:34.241Z,1.17
2022-10-17T01:11:04.963Z,0.93
2022-10-17T01:13:36.251Z,1.00
2022-10-17T01:16:07.871Z,1.17
2022-10-17T01:18:45.132Z,1.20
2022-10-17T01:21:28.048Z,1.07
2022-10-17T01:24:15.683Z,1.20
2022-10-17T01:26:54.913Z,0.97
2022-10-17T01:29:44.181Z,1.00
2022-10-17T01:32:14.944Z,1.00
2022-10-17T01:34:45.524Z,1.00
2022-10-17T01:37:16.903Z,1.00
2022-10-17T01:39:47.906Z,0.90
2022-10-17T01:42:18.055Z,1.20
2022-10-17T01:44:48.568Z,1.20
2022-10-17T01:47:19.753Z,1.03
2022-10-17T01:49:47.689Z,1.07
2022-10-17T01:52:16.836Z,0.90
2022-10-17T01:54:46.510Z,0.90
2022-10-17T01:57:16.730Z,0.90
2022-10-17T01:59:46.741Z,1.00
2022-10-17T02:02:14.761Z,0.90
2022-10-17T02:04:44.028Z,1.00
2022-10-17T02:07:12.605Z,1.00
2022-10-17T02:09:40.646Z,0.90
2022-10-17T02:12:16.829Z,1.03
2022-10-17T02:14:51.855Z,1.10
2022-10-17T02:17:22.571Z,0.80
2022-10-17T02:19:56.307Z,1.00
2022-10-17T02:22:29.375Z,1.00
2022-10-17T02:25:01.389Z,1.00
2022-10-17T02:27:34.924Z,0.93
2022-10-17T02:30:07.070Z,1.10
2022-10-17T02:32:37.094Z,1.00
2022-10-17T02:35:08.283Z,1.00
2022-10-17T02:37:36.254Z,0.97
2022-10-17T02:40:04.370Z,1.00
2022-10-17T02:42:32.854Z,1.00
2022-10-17T02:45:01.961Z,1.00
2022-10-17T02:47:33.010Z,1.00
2022-10-17T02:50:00.967Z,1.00
2022-10-17T02:52:33.078Z,1.10
2022-10-17T02:55:04.399Z,1.00
2022-10-17T02:57:34.090Z,0.90
2022-10-17T03:00:02.414Z,0.97
2022-10-17T03:02:31.045Z,0.90
2022-10-17T03:04:59.184Z,1.03
2022-10-17T03:07:27.135Z,1.10
2022-10-17T03:09:58.635Z,1.17
2022-10-17T03:12:26.814Z,1.10
2022-10-17T03:14:54.957Z,1.10
2022-10-17T03:17:22.877Z,1.00
2022-10-17T03:19:50.767Z,0.90
2022-10-17T03:22:18.629Z,0.93
2022-10-17T03:24:48.322Z,0.90
2022-10-17T03:27:17.637Z,1.00
2022-10-17T03:29:46.702Z,0.90
2022-10-17T03:32:16.225Z,0.93
2022-10-17T03:34:44.570Z,0.90
2022-10-17T03:37:12.474Z,1.00
2022-10-17T03:39:42.341Z,0.97
2022-10-17T03:42:10.329Z,1.10
2022-10-17T03:44:39.814Z,1.00
2022-10-17T03:47:09.326Z,1.10
2022-10-17T03:49:40.503Z,0.90
2022-10-17T03:52:12.240Z,0.90
2022-10-17T03:54:40.197Z,1.00
2022-10-17T03:57:08.188Z,1.10
2022-10-17T03:59:36.622Z,1.07
2022-10-17T04:02:11.349Z,0.90
2022-10-17T04:04:39.259Z,0.90
2022-10-17T04:07:08.150Z,1.00
2022-10-17T04:09:39.778Z,1.10
2022-10-17T04:12:12.226Z,0.90
2022-10-17T04:14:41.059Z,0.90
2022-10-17T04:17:10.975Z,1.10
2022-10-17T04:19:40.057Z,1.10
2022-10-17T04:22:08.568Z,0.90
2022-10-17T04:24:38.797Z,0.90
2022-10-17T04:27:32.686Z,0.90
2022-10-17T04:30:01.291Z,0.80
2022-10-17T04:32:33.224Z,0.80
2022-10-17T04:35:10.308Z,0.90
2022-10-17T04:37:40.591Z,1.00
2022-10-17T04:40:14.570Z,1.00
2022-10-17T04:42:43.170Z,0.90
2022-10-17T04:45:13.662Z,1.03
2022-10-17T04:47:44.017Z,0.90
2022-10-17T04:50:11.870Z,1.00
2022-10-17T04:52:41.497Z,0.90
2022-10-17T04:55:10.352Z,1.00
2022-10-17T04:57:39.348Z,0.90
2022-10-17T05:00:15.458Z,0.80
2022-10-17T05:02:54.447Z,0.90
2022-10-17T05:05:22.353Z,0.90
2022-10-17T05:07:53.551Z,1.00
2022-10-17T05:10:25.172Z,1.00
2022-10-17T05:12:54.556Z,0.90
2022-10-17T05:15:25.061Z,1.00
2022-10-17T05:17:57.479Z,0.90
2022-10-17T05:20:27.186Z,0.87
2022-10-17T05:22:55.203Z,1.00
2022-10-17T05:25:24.280Z,1.00
2022-10-17T05:27:52.215Z,0.90
2022-10-17T05:30:20.339Z,0.80
2022-10-17T05:32:53.516Z,0.90
2022-10-17T05:35:22.950Z,1.00
2022-10-17T05:37:50.929Z,0.90
2022-10-17T05:40:19.790Z,0.97
2022-10-17T05:42:48.494Z,0.80
2022-10-17T05:45:18.050Z,1.10
2022-10-17T05:47:47.201Z,1.00
2022-10-17T05:50:15.253Z,1.00
2022-10-17T05:53:02.241Z,1.20
2022-10-17T05:55:30.255Z,1.13
2022-10-17T05:58:00.876Z,0.90
2022-10-17T06:00:34.636Z,1.10
2022-10-17T06:03:03.088Z,0.90
2022-10-17T06:05:31.158Z,1.00
2022-10-17T06:08:01.856Z,1.00
2022-10-17T06:10:33.411Z,1.00
2022-10-17T06:13:01.567Z,1.03
2022-10-17T06:15:30.248Z,1.00
2022-10-17T06:18:03.414Z,1.07
2022-10-17T06:20:31.889Z,0.90
2022-10-17T06:22:59.785Z,1.00
2022-10-17T06:25:49.331Z,1.10
2022-10-17T06:28:17.691Z,0.90
2022-10-17T06:30:45.680Z,1.10
2022-10-17T06:33:13.698Z,1.00
2022-10-17T06:35:41.592Z,1.20
2022-10-17T06:38:09.937Z,1.17
2022-10-17T06:40:38.797Z,1.10
2022-10-17T06:43:07.994Z,1.00
2022-10-17T06:48:32.665Z,1.00
2022-10-17T06:51:12.267Z,1.00
2022-10-17T06:53:53.671Z,1.00
2022-10-17T06:56:49.101Z,0.90
2022-10-17T06:59:33.171Z,1.00
2022-10-17T07:02:13.670Z,1.00
2022-10-17T07:04:43.373Z,1.03
2022-10-17T07:07:13.588Z,0.93
2022-10-17T07:09:41.502Z,0.90
2022-10-17T07:12:12.135Z,1.00
2022-10-17T07:14:47.296Z,1.17
2022-10-17T07:17:15.263Z,1.10
2022-10-17T07:19:44.386Z,1.00
2022-10-17T07:22:13.132Z,0.90
2022-10-17T07:24:44.842Z,1.00
2022-10-17T07:27:18.596Z,1.00
2022-10-17T07:29:49.101Z,1.00
2022-10-17T07:32:29.095Z,0.83
2022-10-17T07:34:57.133Z,1.00
2022-10-17T07:37:25.180Z,1.00
2022-10-17T07:39:57.291Z,0.97
2022-10-17T07:42:25.255Z,1.10
2022-10-17T07:44:55.990Z,0.90
2022-10-17T07:47:25.310Z,1.00
2022-10-17T07:49:54.779Z,1.00
2022-10-17T07:52:22.673Z,0.90
2022-10-17T07:54:50.534Z,1.00
2022-10-17T07:57:18.424Z,0.97
2022-10-17T07:59:47.803Z,1.00
2022-10-17T08:02:19.659Z,1.10
2022-10-17T08:04:47.551Z,0.87
2022-10-17T08:07:22.992Z,1.10
2022-10-17T08:09:52.211Z,1.10
2022-10-17T08:12:20.408Z,0.90
2022-10-17T08:14:48.355Z,1.00
2022-10-17T08:17:17.587Z,0.90
2022-10-17T08:19:45.460Z,0.90
2022-10-17T08:22:13.365Z,0.90
2022-10-17T08:24:42.744Z,0.93
2022-10-17T08:27:12.998Z,0.80
2022-10-17T08:29:40.889Z,1.10
2022-10-17T08:32:09.958Z,0.97
2022-10-17T08:34:39.449Z,1.00
2022-10-17T08:37:07.401Z,1.00
2022-10-17T08:39:35.308Z,0.90
2022-10-17T08:42:15.594Z,1.13
2022-10-17T08:44:49.770Z,1.10
2022-10-17T08:47:20.739Z,1.00
2022-10-17T08:49:52.357Z,1.00
2022-10-17T08:52:23.373Z,0.90
2022-10-17T08:54:51.238Z,1.00
2022-10-17T08:57:19.181Z,0.83
2022-10-17T08:59:50.269Z,0.90
2022-10-17T09:02:35.725Z,0.90
2022-10-17T09:05:28.217Z,1.00
2022-10-17T09:08:01.758Z,0.90
2022-10-17T09:10:33.125Z,1.10
2022-10-17T09:13:08.165Z,0.93
2022-10-17T09:15:42.762Z,1.10
2022-10-17T09:18:12.406Z,0.93
2022-10-17T09:20:44.255Z,0.90
2022-10-17T09:23:14.431Z,1.03
2022-10-17T09:25:44.062Z,0.90
2022-10-17T09:28:15.296Z,0.87
2022-10-17T09:30:45.844Z,0.97
2022-10-17T09:33:28.123Z,0.90
2022-10-17T09:36:05.553Z,0.90
2022-10-17T09:38:38.781Z,1.07
2022-10-17T09:41:25.601Z,1.00
2022-10-17T09:43:56.013Z,0.90
2022-10-17T09:46:26.424Z,1.10
2022-10-17T09:48:56.778Z,1.00
2022-10-17T09:51:26.429Z,0.90
2022-10-17T09:53:56.524Z,0.93
2022-10-17T09:56:24.429Z,0.90
2022-10-17T09:58:54.399Z,1.00
2022-10-17T10:01:24.375Z,1.03
2022-10-17T10:04:10.608Z,1.00
2022-10-17T10:06:39.955Z,0.90
2022-10-17T10:09:08.184Z,1.03
2022-10-17T10:11:46.286Z,1.00
2022-10-17T10:14:18.908Z,1.00
2022-10-17T10:16:48.080Z,0.90
2022-10-17T10:19:21.413Z,1.17
2022-10-17T10:21:56.366Z,0.90
2022-10-17T10:24:30.323Z,1.00
2022-10-17T10:26:59.722Z,0.93
2022-10-17T10:29:31.095Z,1.00
2022-10-17T10:32:08.182Z,1.00
2022-10-17T10:34:36.216Z,1.07
2022-10-17T10:37:06.497Z,1.00
2022-10-17T10:39:41.291Z,1.00
2022-10-17T10:42:17.964Z,1.10
2022-10-17T10:44:45.806Z,0.90
2022-10-17T10:47:22.968Z,1.00
2022-10-17T10:49:52.572Z,0.93
2022-10-17T10:52:32.498Z,0.90
2022-10-17T10:55:05.473Z,1.00
2022-10-17T10:57:34.706Z,0.90
2022-10-17T11:00:05.856Z,0.90
2022-10-17T11:02:36.481Z,1.20
2022-10-17T11:05:05.631Z,1.20
2022-10-17T11:07:36.277Z,0.90
2022-10-17T11:10:08.881Z,1.00
2022-10-17T11:12:37.553Z,1.10
2022-10-17T11:15:10.350Z,1.00
2022-10-17T11:17:41.036Z,1.20
2022-10-17T11:20:15.072Z,1.17
2022-10-17T11:22:46.682Z,1.10
2022-10-17T11:25:30.881Z,1.20
2022-10-17T11:28:02.320Z,1.20
2022-10-17T11:30:39.072Z,1.43
2022-10-17T11:33:06.990Z,1.10
2022-10-17T11:35:36.847Z,1.40
2022-10-17T11:38:09.420Z,1.30
2022-10-17T11:40:37.981Z,1.20
2022-10-17T11:43:07.898Z,1.70
2022-10-17T11:45:47.320Z,1.80
2022-10-17T11:48:17.736Z,1.80
2022-10-17T11:53:50.598Z,1.60
2022-10-17T11:56:20.222Z,1.60
2022-10-17T11:58:51.396Z,1.57
2022-10-17T12:01:23.762Z,1.70
2022-10-17T12:04:03.008Z,1.70
2022-10-17T12:06:40.866Z,1.60
2022-10-17T12:09:13.059Z,1.60
2022-10-17T12:11:50.557Z,1.80
2022-10-17T12:14:42.296Z,1.60
2022-10-17T12:17:26.606Z,1.60
2022-10-17T12:19:54.650Z,1.60
2022-10-17T12:22:23.361Z,1.70
2022-10-17T12:24:57.625Z,1.70
2022-10-17T12:27:36.206Z,1.67
2022-10-17T12:30:06.471Z,1.47
2022-10-17T12:33:00.054Z,1.57
2022-10-17T12:35:24.321Z,1.50
2022-10-17T12:38:03.646Z,1.80
2022-10-17T12:40:58.670Z,1.60
2022-10-17T12:43:40.601Z,1.43
2022-10-17T12:46:11.867Z,1.50
2022-10-17T12:49:05.693Z,1.67
2022-10-17T12:52:05.920Z,1.40
2022-10-17T12:54:46.996Z,1.50
2022-10-17T12:57:24.895Z,1.50
2022-10-17T12:59:56.655Z,1.40
2022-10-17T13:02:26.675Z,1.47
2022-10-17T13:05:00.135Z,1.50
2022-10-17T13:07:28.308Z,1.80
2022-10-17T13:09:56.339Z,1.33
2022-10-17T13:12:27.154Z,1.50
2022-10-17T13:14:55.410Z,1.37
2022-10-17T13:17:25.376Z,1.60
2022-10-17T13:19:56.255Z,1.70
2022-10-17T13:22:25.064Z,1.43
2022-10-17T13:24:53.888Z,1.30
2022-10-17T13:27:30.255Z,1.70
2022-10-17T13:29:59.055Z,1.47
2022-10-17T13:32:28.571Z,1.40
2022-10-17T13:35:10.070Z,1.40
2022-10-17T13:37:38.374Z,1.40
2022-10-17T13:40:30.776Z,1.50
2022-10-17T13:42:57.856Z,1.43
2022-10-17T13:45:30.351Z,1.57
2022-10-17T13:47:58.644Z,1.37
2022-10-17T13:50:44.226Z,1.53
2022-10-17T13:53:18.938Z,1.50
2022-10-17T13:56:09.370Z,1.20
2022-10-17T13:58:44.603Z,1.47
2022-10-17T14:01:12.631Z,1.40
2022-10-17T14:03:48.689Z,1.50
2022-10-17T14:06:18.681Z,1.57
2022-10-17T14:08:52.373Z,1.43
2022-10-17T14:11:25.361Z,1.40
2022-10-17T14:13:55.145Z,1.37
2022-10-17T14:16:23.122Z,1.50
2022-10-17T14:18:51.073Z,1.30
2022-10-17T14:21:44.351Z,1.30
2022-10-17T14:24:17.490Z,1.30
2022-10-17T14:26:49.388Z,1.50
2022-10-17T14:29:25.135Z,1.33
2022-10-17T14:31:59.260Z,1.30
2022-10-17T14:34:29.994Z,1.30
2022-10-17T14:36:57.862Z,1.60
2022-10-17T14:39:26.183Z,1.50
2022-10-17T14:41:54.186Z,1.23
2022-10-17T14:44:25.753Z,1.83
2022-10-17T14:47:00.249Z,1.50
2022-10-17T14:49:34.482Z,1.30
2022-10-17T14:52:27.857Z,1.53
2022-10-17T14:54:56.258Z,1.30
2022-10-17T14:57:40.399Z,1.43
2022-10-17T15:00:14.167Z,1.27
2022-10-17T15:02:42.171Z,1.40
2022-10-17T15:05:13.275Z,1.30
2022-10-17T15:07:41.620Z,1.50
2022-10-17T15:10:18.542Z,1.50
2022-10-17T15:12:52.085Z,1.40
2022-10-17T15:15:29.285Z,1.40
2022-10-17T15:17:57.165Z,1.27
2022-10-17T15:20:27.871Z,1.20
2022-10-17T15:22:58.198Z,1.33
2022-10-17T15:25:28.775Z,1.20
2022-10-17T15:27:56.837Z,1.67
2022-10-17T15:30:25.937Z,1.50
2022-10-17T15:32:55.223Z,1.33
2022-10-17T15:35:23.112Z,1.30
2022-10-17T15:37:51.040Z,1.67
2022-10-17T15:40:19.914Z,1.40
2022-10-17T15:42:47.859Z,1.30
2022-10-17T15:45:16.594Z,1.30
2022-10-17T15:47:44.931Z,1.27
2022-10-17T15:50:15.052Z,1.30
2022-10-17T15:52:42.962Z,1.40
2022-10-17T15:55:11.304Z,1.40
2022-10-17T15:57:40.841Z,1.50
2022-10-17T16:00:16.647Z,1.40
2022-10-17T16:02:44.776Z,1.40
2022-10-17T16:05:17.366Z,1.43
2022-10-17T16:07:46.146Z,1.30
2022-10-17T16:10:14.042Z,1.40
2022-10-17T16:12:42.064Z,1.30
2022-10-17T16:15:13.701Z,1.13
2022-10-17T16:17:41.805Z,1.40
2022-10-17T16:20:10.227Z,1.20
2022-10-17T16:22:40.654Z,1.40
2022-10-17T16:25:10.150Z,1.37
2022-10-17T16:27:38.266Z,1.20
2022-10-17T16:30:07.257Z,1.23
2022-10-17T16:32:35.142Z,1.20
2022-10-17T16:35:02.999Z,1.40
2022-10-17T16:37:30.883Z,1.10
2022-10-17T16:40:00.582Z,1.20
2022-10-17T16:42:28.760Z,1.27
2022-10-17T16:44:56.791Z,1.10
2022-10-17T16:47:24.657Z,1.20
2022-10-17T16:49:52.521Z,1.40
2022-10-17T16:52:20.451Z,1.30
2022-10-17T16:54:48.362Z,1.00
2022-10-17T16:57:17.603Z,1.10
2022-10-17T16:59:45.467Z,1.30
2022-10-17T17:02:16.358Z,1.10
2022-10-17T17:04:46.918Z,1.20
2022-10-17T17:07:14.810Z,1.20
2022-10-17T17:09:42.753Z,1.20
2022-10-17T17:12:10.654Z,1.20
2022-10-17T17:14:40.068Z,1.30
2022-10-17T17:17:15.362Z,1.10
2022-10-17T17:19:52.589Z,1.20
2022-10-17T17:22:20.502Z,1.27
2022-10-17T17:27:17.220Z,1.17
2022-10-17T17:29:46.455Z,1.20
2022-10-17T17:32:14.673Z,1.20
2022-10-17T17:34:42.629Z,1.00
2022-10-17T17:37:10.505Z,1.20
2022-10-17T17:39:38.467Z,1.00
2022-10-17T17:42:06.385Z,1.00
2022-10-17T17:44:34.340Z,1.20
2022-10-17T17:47:03.615Z,1.10
2022-10-17T17:49:31.564Z,1.27
2022-10-17T17:51:59.536Z,1.20
2022-10-17T17:54:27.446Z,1.20
2022-10-17T17:56:55.357Z,1.00
2022-10-17T17:59:23.431Z,1.00
2022-10-17T18:01:51.427Z,1.20
2022-10-17T18:04:20.690Z,1.30
2022-10-17T18:06:48.756Z,1.10
2022-10-17T18:09:16.630Z,1.10
2022-10-17T18:11:44.515Z,1.20
2022-10-17T18:14:13.431Z,1.10
2022-10-17T18:16:42.167Z,1.20
2022-10-17T18:19:11.225Z,1.10
2022-10-17T18:21:40.497Z,1.20
2022-10-17T18:24:08.381Z,1.10
2022-10-17T18:26:36.292Z,1.10
2022-10-17T18:29:04.171Z,1.20
2022-10-17T18:31:35.672Z,1.23
2022-10-17T18:34:04.133Z,1.00
2022-10-17T18:36:32.913Z,1.17
2022-10-17T18:39:02.201Z,1.03
2022-10-17T18:41:30.174Z,1.10
2022-10-17T18:43:58.245Z,1.00
2022-10-17T18:46:27.272Z,1.27
2022-10-17T18:48:55.274Z,1.20
2022-10-17T18:51:24.088Z,1.10
2022-10-17T18:53:53.054Z,1.17
2022-10-17T18:56:22.604Z,1.07
2022-10-17T18:58:50.477Z,1.00
2022-10-17T19:01:19.869Z,1.00
2022-10-17T19:03:49.190Z,0.90
2022-10-17T19:06:18.597Z,0.83
2022-10-17T19:08:46.694Z,1.03
2022-10-17T19:11:15.663Z,1.10
2022-10-17T19:16:21.353Z,1.00
2022-10-17T19:18:52.627Z,0.80
2022-10-17T19:21:22.025Z,1.00
2022-10-17T19:23:51.560Z,1.13
2022-10-17T19:26:19.654Z,1.00
2022-10-17T19:28:48.945Z,1.20
2022-10-17T19:31:18.057Z,1.00
2022-10-17T19:33:46.347Z,1.00
2022-10-17T19:36:14.560Z,1.20
2022-10-17T19:38:42.469Z,1.00
2022-10-17T19:41:11.524Z,1.10
2022-10-17T19:43:39.607Z,1.00
2022-10-17T19:46:09.714Z,1.03
2022-10-17T19:48:37.762Z,1.20
2022-10-17T19:51:05.873Z,1.00
2022-10-17T19:53:33.788Z,1.10
2022-10-17T19:56:01.777Z,0.90
2022-10-17T19:58:29.681Z,1.13
2022-10-17T20:00:58.525Z,1.03
2022-10-17T20:03:28.021Z,0.90
2022-10-17T20:05:55.908Z,1.10
2022-10-17T20:08:23.767Z,1.10
2022-10-17T20:10:51.654Z,1.00
2022-10-17T20:13:19.555Z,1.10
2022-10-17T20:15:55.032Z,1.07
2022-10-17T20:18:22.923Z,1.00
2022-10-17T20:20:52.141Z,1.03
2022-10-17T20:23:20.044Z,1.20
2022-10-17T20:25:50.506Z,1.03
2022-10-17T20:28:24.772Z,1.10
2022-10-17T20:30:52.669Z,1.00
2022-10-17T20:33:20.539Z,1.07
2022-10-17T20:35:48.432Z,1.20
2022-10-17T20:38:17.831Z,1.00
2022-10-17T20:40:45.811Z,1.10
2022-10-17T20:43:13.853Z,1.20
2022-10-17T20:45:50.860Z,1.10
2022-10-17T20:48:19.556Z,0.90
2022-10-17T20:50:47.423Z,1.00
2022-10-17T20:53:36.959Z,1.07
2022-10-17T20:56:04.891Z,1.00
2022-10-17T20:58:32.775Z,1.07
2022-10-17T21:01:05.179Z,1.03
2022-10-17T21:03:35.169Z,1.00
2022-10-17T21:06:03.283Z,1.00
2022-10-17T21:08:32.529Z,0.93
2022-10-17T21:11:08.499Z,1.10
2022-10-17T21:13:36.400Z,0.90
2022-10-17T21:16:08.718Z,1.10
2022-10-17T21:18:36.752Z,1.00
2022-10-17T21:21:12.151Z,1.10
2022-10-17T21:23:41.819Z,1.10
2022-10-17T21:26:12.148Z,1.00
2022-10-17T21:28:40.368Z,1.00
2022-10-17T21:31:13.171Z,0.90
2022-10-17T21:33:41.289Z,1.00
2022-10-17T21:36:09.684Z,1.07
2022-10-17T21:38:38.163Z,1.10
2022-10-17T21:41:08.710Z,1.03
2022-10-17T21:43:36.835Z,1.10
2022-10-17T21:46:05.190Z,1.03
2022-10-17T21:48:33.358Z,1.00
2022-10-17T21:51:01.794Z,1.00
2022-10-17T21:53:29.756Z,1.07
2022-10-17T21:56:00.008Z,0.87
2022-10-17T21:58:29.462Z,1.00
2022-10-17T22:01:05.439Z,1.00
2022-10-17T22:03:34.653Z,0.90
2022-10-17T22:06:13.022Z,0.90
2022-10-17T22:08:50.601Z,1.00
2022-10-17T22:11:19.706Z,1.00
2022-10-17T22:13:49.035Z,0.90
2022-10-17T22:16:17.230Z,1.20
2022-10-17T22:18:45.130Z,1.00
2022-10-17T22:21:14.183Z,0.93
2022-10-17T22:23:42.139Z,1.10
2022-10-17T22:26:10.240Z,1.00
2022-10-17T22:28:38.495Z,1.10
2022-10-17T22:31:07.807Z,1.00
2022-10-17T22:33:36.551Z,0.90
2022-10-17T22:36:05.017Z,0.90
2022-10-17T22:38:32.906Z,1.00
2022-10-17T22:41:00.795Z,1.10
2022-10-17T22:43:28.669Z,0.90
2022-10-17T22:45:57.614Z,1.03
2022-10-17T22:48:26.947Z,1.00
2022-10-17T22:50:55.634Z,1.03
2022-10-17T22:53:25.667Z,1.03
2022-10-17T22:55:53.815Z,1.00
2022-10-17T22:58:21.789Z,1.00
2022-10-17T23:00:49.881Z,0.90
2022-10-17T23:03:18.009Z,1.10
2022-10-17T23:05:47.598Z,1.00
2022-10-17T23:08:15.652Z,1.20
2022-10-17T23:10:43.558Z,0.90
2022-10-17T23:13:11.540Z,0.90
2022-10-17T23:15:39.465Z,0.90
2022-10-17T23:18:07.651Z,1.10
2022-10-17T23:20:35.562Z,1.00
2022-10-17T23:23:04.981Z,1.00
2022-10-17T23:25:34.193Z,0.93
2022-10-17T23:28:02.156Z,1.10
2022-10-17T23:30:30.260Z,1.00
2022-10-17T23:32:58.127Z,1.07
2022-10-17T23:35:26.046Z,0.80
2022-10-17T23:37:53.915Z,1.00
2022-10-17T23:40:23.139Z,1.00
2022-10-17T23:42:51.025Z,1.10
2022-10-17T23:45:19.059Z,1.00
2022-10-17T23:47:47.021Z,1.00
2022-10-17T23:50:14.880Z,0.90
2022-10-17T23:52:42.772Z,1.00
2022-10-17T23:55:11.283Z,1.00
2022-10-17T23:57:40.518Z,0.90
